Seven Fountains, Virginia
Current Conditions -  °F | °C
As of 2:15 PM on Thursday 30 Oct 2014 (Local Time) from KLUA Reporting Station
Overcast Overcast  
Wind Chill: 54°   Ceiling: 4800
Heat Index: 54°   Visibility: 10mi
Dew Point: 36°   Wind: 3mph
Humidity: 51%   Direction: 260°W
Pressure: 30.06"   Gusts: NA
Location:  38.7975°N, 78.4577°W
Report Text: KLUA 301815Z AUTO 26003KT 10SM OVC048 12/02 A3006 RMK AO2
Loading
Personal Weather Stations






























Interactive Weather Map
Tropical Storm Tracking
New forecast layout! Learn more

10-Day Weather Forecast

Advertisements
Track Severe Weather on mobile